sensor_id;sensor_type;location;lat;lon;timestamp;P1;durP1;ratioP1;P2;durP2;ratioP2
36931;SDS011;22847;42.654;23.370;2023-08-01T00:01:00;4.20;;;1.90;;
36931;SDS011;22847;42.654;23.370;2023-08-01T00:03:25;5.18;;;2.35;;
36931;SDS011;22847;42.654;23.370;2023-08-01T00:05:51;6.20;;;2.15;;
36931;SDS011;22847;42.654;23.370;2023-08-01T00:08:16;2.42;;;2.05;;
36931;SDS011;22847;42.654;23.370;2023-08-01T00:10:42;2.63;;;1.90;;
36931;SDS011;22847;42.654;23.370;2023-08-01T00:13:07;5.03;;;2.28;;
36931;SDS011;22847;42.654;23.370;2023-08-01T00:15:33;3.63;;;2.05;;
36931;SDS011;22847;42.654;23.370;2023-08-01T00:17:59;3.25;;;2.22;;
36931;SDS011;22847;42.654;23.370;2023-08-01T00:20:24;4.25;;;2.30;;
36931;SDS011;22847;42.654;23.370;2023-08-01T00:22:50;3.22;;;1.95;;
36931;SDS011;22847;42.654;23.370;2023-08-01T00:25:15;3.88;;;1.85;;
36931;SDS011;22847;42.654;23.370;2023-08-01T00:27:40;4.80;;;2.33;;
36931;SDS011;22847;42.654;23.370;2023-08-01T00:30:07;3.75;;;2.13;;
36931;SDS011;22847;42.654;23.370;2023-08-01T00:32:33;3.50;;;2.28;;
36931;SDS011;22847;42.654;23.370;2023-08-01T00:34:59;6.70;;;2.03;;
36931;SDS011;22847;42.654;23.370;2023-08-01T00:37:24;3.00;;;1.85;;
36931;SDS011;22847;42.654;23.370;2023-08-01T00:39:50;3.42;;;2.58;;
36931;SDS011;22847;42.654;23.370;2023-08-01T00:42:15;2.65;;;2.22;;
36931;SDS011;22847;42.654;23.370;2023-08-01T00:44:41;2.67;;;1.83;;
36931;SDS011;22847;42.654;23.370;2023-08-01T00:47:06;9.40;;;2.47;;
36931;SDS011;22847;42.654;23.370;2023-08-01T00:49:32;4.55;;;2.25;;
36931;SDS011;22847;42.654;23.370;2023-08-01T00:51:58;2.10;;;1.77;;
36931;SDS011;22847;42.654;23.370;2023-08-01T00:54:23;2.83;;;2.20;;
36931;SDS011;22847;42.654;23.370;2023-08-01T00:56:50;2.90;;;1.70;;
36931;SDS011;22847;42.654;23.370;2023-08-01T00:59:15;3.95;;;2.45;;
36931;SDS011;22847;42.654;23.370;2023-08-01T01:01:41;3.25;;;2.17;;
36931;SDS011;22847;42.654;23.370;2023-08-01T01:04:07;3.90;;;2.35;;
36931;SDS011;22847;42.654;23.370;2023-08-01T01:06:47;5.60;;;2.25;;
36931;SDS011;22847;42.654;23.370;2023-08-01T01:09:18;4.03;;;2.25;;
36931;SDS011;22847;42.654;23.370;2023-08-01T01:11:45;3.58;;;1.92;;
36931;SDS011;22847;42.654;23.370;2023-08-01T01:14:11;3.17;;;2.10;;
36931;SDS011;22847;42.654;23.370;2023-08-01T01:16:36;2.92;;;2.08;;
36931;SDS011;22847;42.654;23.370;2023-08-01T01:19:05;8.25;;;2.20;;
36931;SDS011;22847;42.654;23.370;2023-08-01T01:21:33;3.45;;;2.28;;
36931;SDS011;22847;42.654;23.370;2023-08-01T01:24:00;4.80;;;2.13;;
36931;SDS011;22847;42.654;23.370;2023-08-01T01:26:27;7.25;;;2.30;;
36931;SDS011;22847;42.654;23.370;2023-08-01T01:28:53;5.07;;;1.95;;
36931;SDS011;22847;42.654;23.370;2023-08-01T01:31:20;3.38;;;2.30;;
36931;SDS011;22847;42.654;23.370;2023-08-01T01:33:45;3.90;;;2.50;;
36931;SDS011;22847;42.654;23.370;2023-08-01T01:36:11;3.08;;;2.03;;
36931;SDS011;22847;42.654;23.370;2023-08-01T01:38:36;3.53;;;2.10;;
36931;SDS011;22847;42.654;23.370;2023-08-01T01:41:02;2.88;;;2.17;;
36931;SDS011;22847;42.654;23.370;2023-08-01T01:43:27;3.40;;;2.08;;
36931;SDS011;22847;42.654;23.370;2023-08-01T01:45:53;2.50;;;1.98;;
36931;SDS011;22847;42.654;23.370;2023-08-01T01:48:18;3.28;;;2.15;;
36931;SDS011;22847;42.654;23.370;2023-08-01T01:50:43;3.80;;;2.30;;
36931;SDS011;22847;42.654;23.370;2023-08-01T01:53:09;3.67;;;2.25;;
36931;SDS011;22847;42.654;23.370;2023-08-01T01:55:34;7.43;;;2.15;;
36931;SDS011;22847;42.654;23.370;2023-08-01T01:58:00;4.53;;;2.15;;
36931;SDS011;22847;42.654;23.370;2023-08-01T02:00:25;4.90;;;2.60;;
36931;SDS011;22847;42.654;23.370;2023-08-01T02:02:50;4.68;;;2.45;;
36931;SDS011;22847;42.654;23.370;2023-08-01T02:05:16;3.13;;;2.35;;
36931;SDS011;22847;42.654;23.370;2023-08-01T02:07:41;6.80;;;2.85;;
36931;SDS011;22847;42.654;23.370;2023-08-01T02:10:07;9.52;;;3.00;;
36931;SDS011;22847;42.654;23.370;2023-08-01T02:12:33;4.68;;;2.90;;
36931;SDS011;22847;42.654;23.370;2023-08-01T02:15:00;7.55;;;3.00;;
36931;SDS011;22847;42.654;23.370;2023-08-01T02:17:26;3.58;;;2.80;;
36931;SDS011;22847;42.654;23.370;2023-08-01T02:19:51;5.13;;;3.60;;
36931;SDS011;22847;42.654;23.370;2023-08-01T02:22:17;5.95;;;3.97;;
36931;SDS011;22847;42.654;23.370;2023-08-01T02:24:42;5.05;;;4.00;;
36931;SDS011;22847;42.654;23.370;2023-08-01T02:27:08;6.97;;;4.85;;
36931;SDS011;22847;42.654;23.370;2023-08-01T02:29:33;10.25;;;5.10;;
36931;SDS011;22847;42.654;23.370;2023-08-01T02:31:59;10.70;;;4.70;;
36931;SDS011;22847;42.654;23.370;2023-08-01T02:34:24;7.18;;;4.93;;
36931;SDS011;22847;42.654;23.370;2023-08-01T02:36:50;9.50;;;5.50;;
36931;SDS011;22847;42.654;23.370;2023-08-01T02:39:15;5.63;;;4.55;;
36931;SDS011;22847;42.654;23.370;2023-08-01T02:41:40;7.47;;;4.55;;
36931;SDS011;22847;42.654;23.370;2023-08-01T02:44:06;7.45;;;4.85;;
36931;SDS011;22847;42.654;23.370;2023-08-01T02:46:31;6.35;;;4.60;;
36931;SDS011;22847;42.654;23.370;2023-08-01T02:48:57;11.38;;;5.07;;
36931;SDS011;22847;42.654;23.370;2023-08-01T02:51:22;6.13;;;4.60;;
36931;SDS011;22847;42.654;23.370;2023-08-01T02:53:48;7.03;;;4.47;;
36931;SDS011;22847;42.654;23.370;2023-08-01T02:56:13;5.45;;;4.25;;
36931;SDS011;22847;42.654;23.370;2023-08-01T02:58:38;7.53;;;4.50;;
36931;SDS011;22847;42.654;23.370;2023-08-01T03:01:07;7.90;;;4.25;;
36931;SDS011;22847;42.654;23.370;2023-08-01T03:03:34;5.82;;;4.13;;
36931;SDS011;22847;42.654;23.370;2023-08-01T03:06:01;10.38;;;4.30;;
36931;SDS011;22847;42.654;23.370;2023-08-01T03:08:26;5.90;;;4.32;;
36931;SDS011;22847;42.654;23.370;2023-08-01T03:10:52;6.35;;;4.43;;
36931;SDS011;22847;42.654;23.370;2023-08-01T03:13:20;7.60;;;4.30;;
36931;SDS011;22847;42.654;23.370;2023-08-01T03:15:46;7.03;;;4.90;;
36931;SDS011;22847;42.654;23.370;2023-08-01T03:18:12;6.55;;;4.22;;
36931;SDS011;22847;42.654;23.370;2023-08-01T03:20:37;10.23;;;4.43;;
36931;SDS011;22847;42.654;23.370;2023-08-01T03:23:02;7.80;;;4.55;;
36931;SDS011;22847;42.654;23.370;2023-08-01T03:25:28;6.85;;;4.80;;
36931;SDS011;22847;42.654;23.370;2023-08-01T03:27:53;8.70;;;4.72;;
36931;SDS011;22847;42.654;23.370;2023-08-01T03:30:19;6.88;;;4.68;;
36931;SDS011;22847;42.654;23.370;2023-08-01T03:32:46;8.82;;;5.25;;
36931;SDS011;22847;42.654;23.370;2023-08-01T03:35:12;12.93;;;5.88;;
36931;SDS011;22847;42.654;23.370;2023-08-01T03:37:39;8.82;;;6.13;;
36931;SDS011;22847;42.654;23.370;2023-08-01T03:40:05;12.00;;;6.97;;
36931;SDS011;22847;42.654;23.370;2023-08-01T03:42:33;12.48;;;7.75;;
36931;SDS011;22847;42.654;23.370;2023-08-01T03:44:59;13.00;;;8.65;;
36931;SDS011;22847;42.654;23.370;2023-08-01T03:47:25;14.35;;;7.85;;
36931;SDS011;22847;42.654;23.370;2023-08-01T03:49:50;13.13;;;6.95;;
36931;SDS011;22847;42.654;23.370;2023-08-01T03:52:15;16.95;;;7.38;;
36931;SDS011;22847;42.654;23.370;2023-08-01T03:54:41;9.63;;;6.53;;
36931;SDS011;22847;42.654;23.370;2023-08-01T03:57:06;10.45;;;7.43;;
36931;SDS011;22847;42.654;23.370;2023-08-01T03:59:31;13.27;;;6.88;;
36931;SDS011;22847;42.654;23.370;2023-08-01T04:01:57;11.90;;;8.30;;
36931;SDS011;22847;42.654;23.370;2023-08-01T04:04:22;13.40;;;8.68;;
36931;SDS011;22847;42.654;23.370;2023-08-01T04:06:48;7.72;;;6.57;;
36931;SDS011;22847;42.654;23.370;2023-08-01T04:09:32;13.43;;;7.13;;
36931;SDS011;22847;42.654;23.370;2023-08-01T04:11:58;8.40;;;7.35;;
36931;SDS011;22847;42.654;23.370;2023-08-01T04:14:23;17.05;;;7.90;;
36931;SDS011;22847;42.654;23.370;2023-08-01T04:16:48;11.73;;;7.03;;
36931;SDS011;22847;42.654;23.370;2023-08-01T04:19:14;10.05;;;6.13;;
36931;SDS011;22847;42.654;23.370;2023-08-01T04:21:39;9.82;;;6.20;;
36931;SDS011;22847;42.654;23.370;2023-08-01T04:24:05;12.57;;;9.20;;
36931;SDS011;22847;42.654;23.370;2023-08-01T04:26:30;12.02;;;7.53;;
36931;SDS011;22847;42.654;23.370;2023-08-01T04:28:56;12.30;;;5.90;;
36931;SDS011;22847;42.654;23.370;2023-08-01T04:31:21;7.55;;;4.20;;
36931;SDS011;22847;42.654;23.370;2023-08-01T04:33:46;7.75;;;4.30;;
36931;SDS011;22847;42.654;23.370;2023-08-01T04:36:12;6.60;;;4.10;;
36931;SDS011;22847;42.654;23.370;2023-08-01T04:38:37;7.97;;;4.85;;
36931;SDS011;22847;42.654;23.370;2023-08-01T04:41:03;13.07;;;6.18;;
36931;SDS011;22847;42.654;23.370;2023-08-01T04:43:28;8.32;;;5.80;;
36931;SDS011;22847;42.654;23.370;2023-08-01T04:45:53;6.85;;;6.15;;
36931;SDS011;22847;42.654;23.370;2023-08-01T04:48:19;11.60;;;6.38;;
36931;SDS011;22847;42.654;23.370;2023-08-01T04:50:44;11.30;;;5.80;;
36931;SDS011;22847;42.654;23.370;2023-08-01T04:53:10;9.35;;;6.10;;
36931;SDS011;22847;42.654;23.370;2023-08-01T04:55:36;12.88;;;5.30;;
36931;SDS011;22847;42.654;23.370;2023-08-01T04:58:02;11.73;;;4.85;;
36931;SDS011;22847;42.654;23.370;2023-08-01T05:00:27;9.63;;;5.07;;
36931;SDS011;22847;42.654;23.370;2023-08-01T05:02:52;11.63;;;5.18;;
36931;SDS011;22847;42.654;23.370;2023-08-01T05:05:18;5.53;;;3.90;;
36931;SDS011;22847;42.654;23.370;2023-08-01T05:07:43;7.20;;;4.25;;
36931;SDS011;22847;42.654;23.370;2023-08-01T05:10:09;9.32;;;4.65;;
36931;SDS011;22847;42.654;23.370;2023-08-01T05:12:35;5.60;;;4.45;;
36931;SDS011;22847;42.654;23.370;2023-08-01T05:15:00;12.27;;;4.47;;
36931;SDS011;22847;42.654;23.370;2023-08-01T05:17:25;6.93;;;4.38;;
36931;SDS011;22847;42.654;23.370;2023-08-01T05:19:51;4.88;;;3.85;;
36931;SDS011;22847;42.654;23.370;2023-08-01T05:22:16;14.15;;;4.32;;
36931;SDS011;22847;42.654;23.370;2023-08-01T05:24:41;5.05;;;3.58;;
36931;SDS011;22847;42.654;23.370;2023-08-01T05:27:07;8.65;;;3.67;;
36931;SDS011;22847;42.654;23.370;2023-08-01T05:29:32;5.35;;;4.20;;
36931;SDS011;22847;42.654;23.370;2023-08-01T05:31:58;13.23;;;4.43;;
36931;SDS011;22847;42.654;23.370;2023-08-01T05:34:23;12.40;;;3.90;;
36931;SDS011;22847;42.654;23.370;2023-08-01T05:36:49;5.30;;;3.63;;
36931;SDS011;22847;42.654;23.370;2023-08-01T05:39:15;5.18;;;3.58;;
36931;SDS011;22847;42.654;23.370;2023-08-01T05:41:41;8.63;;;3.72;;
36931;SDS011;22847;42.654;23.370;2023-08-01T05:44:07;4.45;;;3.38;;
36931;SDS011;22847;42.654;23.370;2023-08-01T05:46:32;6.70;;;3.53;;
36931;SDS011;22847;42.654;23.370;2023-08-01T05:48:58;5.03;;;3.58;;
36931;SDS011;22847;42.654;23.370;2023-08-01T05:51:23;10.75;;;3.58;;
36931;SDS011;22847;42.654;23.370;2023-08-01T05:53:49;7.85;;;3.42;;
36931;SDS011;22847;42.654;23.370;2023-08-01T05:56:14;4.20;;;3.22;;
36931;SDS011;22847;42.654;23.370;2023-08-01T05:58:40;3.97;;;3.53;;
36931;SDS011;22847;42.654;23.370;2023-08-01T06:01:05;4.28;;;3.28;;
36931;SDS011;22847;42.654;23.370;2023-08-01T06:03:31;7.10;;;2.95;;
36931;SDS011;22847;42.654;23.370;2023-08-01T06:05:56;6.25;;;3.47;;
36931;SDS011;22847;42.654;23.370;2023-08-01T06:08:22;8.27;;;3.20;;
36931;SDS011;22847;42.654;23.370;2023-08-01T06:10:47;7.18;;;2.95;;
36931;SDS011;22847;42.654;23.370;2023-08-01T06:13:12;6.85;;;3.08;;
36931;SDS011;22847;42.654;23.370;2023-08-01T06:15:38;6.43;;;2.60;;
36931;SDS011;22847;42.654;23.370;2023-08-01T06:18:03;6.53;;;3.10;;
36931;SDS011;22847;42.654;23.370;2023-08-01T06:20:29;5.55;;;2.95;;
36931;SDS011;22847;42.654;23.370;2023-08-01T06:22:54;5.18;;;2.95;;
36931;SDS011;22847;42.654;23.370;2023-08-01T06:25:20;5.47;;;3.53;;
36931;SDS011;22847;42.654;23.370;2023-08-01T06:27:45;6.13;;;3.00;;
36931;SDS011;22847;42.654;23.370;2023-08-01T06:30:11;7.72;;;3.47;;
36931;SDS011;22847;42.654;23.370;2023-08-01T06:32:36;6.20;;;3.20;;
36931;SDS011;22847;42.654;23.370;2023-08-01T06:35:02;5.85;;;3.30;;
36931;SDS011;22847;42.654;23.370;2023-08-01T06:37:28;7.57;;;3.17;;
36931;SDS011;22847;42.654;23.370;2023-08-01T06:39:54;11.70;;;3.60;;
36931;SDS011;22847;42.654;23.370;2023-08-01T06:42:20;6.35;;;3.20;;
36931;SDS011;22847;42.654;23.370;2023-08-01T06:44:45;7.53;;;3.05;;
36931;SDS011;22847;42.654;23.370;2023-08-01T06:47:11;6.75;;;3.33;;
36931;SDS011;22847;42.654;23.370;2023-08-01T06:49:37;7.85;;;3.10;;
36931;SDS011;22847;42.654;23.370;2023-08-01T06:52:02;18.52;;;3.63;;
36931;SDS011;22847;42.654;23.370;2023-08-01T06:54:28;11.63;;;4.10;;
36931;SDS011;22847;42.654;23.370;2023-08-01T06:56:53;6.00;;;3.78;;
36931;SDS011;22847;42.654;23.370;2023-08-01T06:59:19;8.23;;;3.10;;
36931;SDS011;22847;42.654;23.370;2023-08-01T07:01:44;9.85;;;3.45;;
36931;SDS011;22847;42.654;23.370;2023-08-01T07:04:10;8.75;;;3.25;;
36931;SDS011;22847;42.654;23.370;2023-08-01T07:06:36;9.35;;;3.45;;
36931;SDS011;22847;42.654;23.370;2023-08-01T07:09:01;7.43;;;3.85;;
36931;SDS011;22847;42.654;23.370;2023-08-01T07:11:27;7.30;;;3.50;;
36931;SDS011;22847;42.654;23.370;2023-08-01T07:13:52;8.32;;;3.72;;
36931;SDS011;22847;42.654;23.370;2023-08-01T07:16:18;6.65;;;3.50;;
36931;SDS011;22847;42.654;23.370;2023-08-01T07:18:43;8.73;;;3.17;;
36931;SDS011;22847;42.654;23.370;2023-08-01T07:21:09;7.25;;;3.00;;
36931;SDS011;22847;42.654;23.370;2023-08-01T07:23:34;11.52;;;3.17;;
36931;SDS011;22847;42.654;23.370;2023-08-01T07:26:01;3.92;;;3.08;;
36931;SDS011;22847;42.654;23.370;2023-08-01T07:28:26;5.85;;;2.65;;
36931;SDS011;22847;42.654;23.370;2023-08-01T07:30:58;6.53;;;3.00;;
36931;SDS011;22847;42.654;23.370;2023-08-01T07:33:29;6.75;;;3.10;;
36931;SDS011;22847;42.654;23.370;2023-08-01T07:35:54;6.13;;;3.97;;
36931;SDS011;22847;42.654;23.370;2023-08-01T07:38:20;11.38;;;5.03;;
36931;SDS011;22847;42.654;23.370;2023-08-01T07:40:45;12.27;;;4.75;;
36931;SDS011;22847;42.654;23.370;2023-08-01T07:43:11;8.07;;;2.95;;
36931;SDS011;22847;42.654;23.370;2023-08-01T07:45:36;8.30;;;3.22;;
36931;SDS011;22847;42.654;23.370;2023-08-01T07:48:02;8.32;;;3.42;;
36931;SDS011;22847;42.654;23.370;2023-08-01T07:50:28;7.55;;;3.30;;
36931;SDS011;22847;42.654;23.370;2023-08-01T07:52:53;5.88;;;3.58;;
36931;SDS011;22847;42.654;23.370;2023-08-01T07:55:19;9.38;;;4.28;;
36931;SDS011;22847;42.654;23.370;2023-08-01T07:57:46;4.95;;;3.13;;
36931;SDS011;22847;42.654;23.370;2023-08-01T08:00:14;6.13;;;3.67;;
36931;SDS011;22847;42.654;23.370;2023-08-01T08:02:43;9.38;;;3.30;;
36931;SDS011;22847;42.654;23.370;2023-08-01T08:05:10;5.75;;;3.55;;
36931;SDS011;22847;42.654;23.370;2023-08-01T08:07:36;6.80;;;3.33;;
36931;SDS011;22847;42.654;23.370;2023-08-01T08:10:02;10.23;;;3.33;;
36931;SDS011;22847;42.654;23.370;2023-08-01T08:12:28;11.60;;;4.18;;
36931;SDS011;22847;42.654;23.370;2023-08-01T08:14:54;6.55;;;3.65;;
36931;SDS011;22847;42.654;23.370;2023-08-01T08:17:19;6.85;;;3.58;;
36931;SDS011;22847;42.654;23.370;2023-08-01T08:19:45;8.75;;;3.80;;
36931;SDS011;22847;42.654;23.370;2023-08-01T08:22:10;8.02;;;3.70;;
36931;SDS011;22847;42.654;23.370;2023-08-01T08:24:36;9.23;;;3.90;;
36931;SDS011;22847;42.654;23.370;2023-08-01T08:27:01;5.60;;;3.80;;
36931;SDS011;22847;42.654;23.370;2023-08-01T08:29:27;7.13;;;3.20;;
36931;SDS011;22847;42.654;23.370;2023-08-01T08:31:52;8.88;;;4.13;;
36931;SDS011;22847;42.654;23.370;2023-08-01T08:34:17;8.55;;;3.55;;
36931;SDS011;22847;42.654;23.370;2023-08-01T08:36:43;6.60;;;3.20;;
36931;SDS011;22847;42.654;23.370;2023-08-01T08:39:08;5.30;;;3.67;;
36931;SDS011;22847;42.654;23.370;2023-08-01T08:41:45;8.68;;;3.10;;
36931;SDS011;22847;42.654;23.370;2023-08-01T08:44:15;7.35;;;3.33;;
36931;SDS011;22847;42.654;23.370;2023-08-01T08:46:42;4.68;;;3.38;;
36931;SDS011;22847;42.654;23.370;2023-08-01T08:49:09;9.63;;;3.53;;
36931;SDS011;22847;42.654;23.370;2023-08-01T08:51:36;6.47;;;3.53;;
36931;SDS011;22847;42.654;23.370;2023-08-01T08:54:03;8.07;;;3.28;;
36931;SDS011;22847;42.654;23.370;2023-08-01T08:56:30;7.95;;;3.35;;
36931;SDS011;22847;42.654;23.370;2023-08-01T08:58:56;6.65;;;3.45;;
36931;SDS011;22847;42.654;23.370;2023-08-01T09:01:22;9.30;;;3.30;;
36931;SDS011;22847;42.654;23.370;2023-08-01T09:03:47;5.18;;;2.97;;
36931;SDS011;22847;42.654;23.370;2023-08-01T09:06:17;7.25;;;3.00;;
36931;SDS011;22847;42.654;23.370;2023-08-01T09:08:50;4.53;;;3.08;;
36931;SDS011;22847;42.654;23.370;2023-08-01T09:11:17;8.38;;;3.60;;
36931;SDS011;22847;42.654;23.370;2023-08-01T09:13:42;8.07;;;3.60;;
36931;SDS011;22847;42.654;23.370;2023-08-01T09:16:08;6.03;;;3.17;;
36931;SDS011;22847;42.654;23.370;2023-08-01T09:18:34;5.28;;;3.50;;
36931;SDS011;22847;42.654;23.370;2023-08-01T09:21:00;4.10;;;2.92;;
36931;SDS011;22847;42.654;23.370;2023-08-01T09:23:29;6.50;;;3.45;;
36931;SDS011;22847;42.654;23.370;2023-08-01T09:25:55;6.28;;;3.17;;
36931;SDS011;22847;42.654;23.370;2023-08-01T09:28:24;7.32;;;3.50;;
36931;SDS011;22847;42.654;23.370;2023-08-01T09:30:53;5.05;;;3.38;;
36931;SDS011;22847;42.654;23.370;2023-08-01T09:33:23;8.10;;;3.33;;
36931;SDS011;22847;42.654;23.370;2023-08-01T09:35:51;5.88;;;3.05;;
36931;SDS011;22847;42.654;23.370;2023-08-01T09:38:17;7.68;;;3.60;;
36931;SDS011;22847;42.654;23.370;2023-08-01T09:40:43;5.57;;;3.47;;
36931;SDS011;22847;42.654;23.370;2023-08-01T09:43:10;6.55;;;3.75;;
36931;SDS011;22847;42.654;23.370;2023-08-01T09:45:36;7.57;;;3.72;;
36931;SDS011;22847;42.654;23.370;2023-08-01T09:48:02;6.95;;;3.85;;
36931;SDS011;22847;42.654;23.370;2023-08-01T09:50:28;4.57;;;3.20;;
36931;SDS011;22847;42.654;23.370;2023-08-01T09:52:53;7.13;;;3.35;;
36931;SDS011;22847;42.654;23.370;2023-08-01T09:57:57;9.82;;;3.72;;
36931;SDS011;22847;42.654;23.370;2023-08-01T10:00:24;10.35;;;3.40;;
36931;SDS011;22847;42.654;23.370;2023-08-01T10:02:51;6.50;;;3.45;;
36931;SDS011;22847;42.654;23.370;2023-08-01T10:05:18;9.52;;;3.50;;
36931;SDS011;22847;42.654;23.370;2023-08-01T10:07:44;6.40;;;3.42;;
36931;SDS011;22847;42.654;23.370;2023-08-01T10:10:11;6.68;;;4.03;;
36931;SDS011;22847;42.654;23.370;2023-08-01T10:12:37;8.10;;;4.38;;
36931;SDS011;22847;42.654;23.370;2023-08-01T10:15:03;9.18;;;3.60;;
36931;SDS011;22847;42.654;23.370;2023-08-01T10:17:29;7.60;;;3.63;;
36931;SDS011;22847;42.654;23.370;2023-08-01T10:19:56;10.80;;;3.20;;
36931;SDS011;22847;42.654;23.370;2023-08-01T10:22:22;9.40;;;3.35;;
36931;SDS011;22847;42.654;23.370;2023-08-01T10:24:49;7.65;;;3.88;;
36931;SDS011;22847;42.654;23.370;2023-08-01T10:27:19;7.03;;;3.92;;
36931;SDS011;22847;42.654;23.370;2023-08-01T10:29:45;7.95;;;3.42;;
36931;SDS011;22847;42.654;23.370;2023-08-01T10:32:27;6.20;;;3.45;;
36931;SDS011;22847;42.654;23.370;2023-08-01T10:37:20;5.87;;;3.43;;
36931;SDS011;22847;42.654;23.370;2023-08-01T10:39:55;5.80;;;3.55;;
36931;SDS011;22847;42.654;23.370;2023-08-01T10:42:22;9.35;;;3.85;;
36931;SDS011;22847;42.654;23.370;2023-08-01T10:44:47;6.65;;;3.60;;
36931;SDS011;22847;42.654;23.370;2023-08-01T10:47:12;6.53;;;3.20;;
36931;SDS011;22847;42.654;23.370;2023-08-01T10:49:39;5.50;;;3.50;;
36931;SDS011;22847;42.654;23.370;2023-08-01T10:52:20;4.78;;;3.55;;
36931;SDS011;22847;42.654;23.370;2023-08-01T10:54:55;6.05;;;3.40;;
36931;SDS011;22847;42.654;23.370;2023-08-01T10:57:24;7.03;;;3.60;;
36931;SDS011;22847;42.654;23.370;2023-08-01T10:59:50;6.38;;;3.40;;
36931;SDS011;22847;42.654;23.370;2023-08-01T11:02:23;8.07;;;4.07;;
36931;SDS011;22847;42.654;23.370;2023-08-01T11:07:21;6.43;;;4.38;;
36931;SDS011;22847;42.654;23.370;2023-08-01T11:09:47;8.25;;;3.70;;
36931;SDS011;22847;42.654;23.370;2023-08-01T11:12:12;5.90;;;3.15;;
36931;SDS011;22847;42.654;23.370;2023-08-01T11:14:38;8.00;;;3.83;;
36931;SDS011;22847;42.654;23.370;2023-08-01T11:17:04;7.22;;;3.47;;
36931;SDS011;22847;42.654;23.370;2023-08-01T11:19:29;7.82;;;3.60;;
36931;SDS011;22847;42.654;23.370;2023-08-01T11:21:56;5.97;;;3.30;;
36931;SDS011;22847;42.654;23.370;2023-08-01T11:24:22;4.63;;;3.50;;
36931;SDS011;22847;42.654;23.370;2023-08-01T11:26:49;7.90;;;3.50;;
36931;SDS011;22847;42.654;23.370;2023-08-01T11:29:16;7.25;;;3.60;;
36931;SDS011;22847;42.654;23.370;2023-08-01T11:31:58;8.77;;;3.63;;
36931;SDS011;22847;42.654;23.370;2023-08-01T11:34:25;7.18;;;3.90;;
36931;SDS011;22847;42.654;23.370;2023-08-01T11:36:50;6.35;;;4.28;;
36931;SDS011;22847;42.654;23.370;2023-08-01T11:39:16;6.22;;;3.83;;
36931;SDS011;22847;42.654;23.370;2023-08-01T11:41:43;4.72;;;3.75;;
36931;SDS011;22847;42.654;23.370;2023-08-01T11:44:08;7.53;;;3.70;;
36931;SDS011;22847;42.654;23.370;2023-08-01T11:46:36;5.13;;;3.53;;
36931;SDS011;22847;42.654;23.370;2023-08-01T11:49:03;5.85;;;3.83;;
36931;SDS011;22847;42.654;23.370;2023-08-01T11:51:38;10.43;;;4.00;;
36931;SDS011;22847;42.654;23.370;2023-08-01T11:54:05;8.85;;;3.80;;
36931;SDS011;22847;42.654;23.370;2023-08-01T11:56:32;5.32;;;3.47;;
36931;SDS011;22847;42.654;23.370;2023-08-01T11:58:58;4.65;;;3.63;;
36931;SDS011;22847;42.654;23.370;2023-08-01T12:01:24;5.30;;;3.67;;
36931;SDS011;22847;42.654;23.370;2023-08-01T12:03:51;10.57;;;4.35;;
36931;SDS011;22847;42.654;23.370;2023-08-01T12:06:19;9.52;;;3.80;;
36931;SDS011;22847;42.654;23.370;2023-08-01T12:08:52;6.03;;;3.60;;
36931;SDS011;22847;42.654;23.370;2023-08-01T12:11:22;6.30;;;3.58;;
36931;SDS011;22847;42.654;23.370;2023-08-01T12:16:39;9.27;;;3.95;;
36931;SDS011;22847;42.654;23.370;2023-08-01T12:19:10;5.97;;;3.78;;
36931;SDS011;22847;42.654;23.370;2023-08-01T12:21:41;10.05;;;3.97;;
36931;SDS011;22847;42.654;23.370;2023-08-01T12:24:07;4.97;;;3.47;;
36931;SDS011;22847;42.654;23.370;2023-08-01T12:26:32;11.07;;;4.28;;
36931;SDS011;22847;42.654;23.370;2023-08-01T12:28:57;12.45;;;3.80;;
36931;SDS011;22847;42.654;23.370;2023-08-01T12:31:23;5.15;;;3.22;;
36931;SDS011;22847;42.654;23.370;2023-08-01T12:33:48;7.38;;;3.63;;
36931;SDS011;22847;42.654;23.370;2023-08-01T12:36:14;5.50;;;3.40;;
36931;SDS011;22847;42.654;23.370;2023-08-01T12:38:40;11.98;;;3.53;;
36931;SDS011;22847;42.654;23.370;2023-08-01T12:41:06;12.05;;;3.80;;
36931;SDS011;22847;42.654;23.370;2023-08-01T12:43:32;6.50;;;4.25;;
36931;SDS011;22847;42.654;23.370;2023-08-01T12:45:57;12.02;;;3.58;;
36931;SDS011;22847;42.654;23.370;2023-08-01T12:48:23;10.02;;;3.90;;
36931;SDS011;22847;42.654;23.370;2023-08-01T12:50:52;5.30;;;3.50;;
36931;SDS011;22847;42.654;23.370;2023-08-01T12:53:18;5.50;;;3.72;;
36931;SDS011;22847;42.654;23.370;2023-08-01T12:55:44;8.10;;;3.28;;
36931;SDS011;22847;42.654;23.370;2023-08-01T12:58:10;11.93;;;3.80;;
36931;SDS011;22847;42.654;23.370;2023-08-01T13:00:36;5.82;;;3.25;;
36931;SDS011;22847;42.654;23.370;2023-08-01T13:03:01;10.55;;;4.47;;
36931;SDS011;22847;42.654;23.370;2023-08-01T13:05:27;5.93;;;3.28;;
36931;SDS011;22847;42.654;23.370;2023-08-01T13:07:52;10.35;;;3.58;;
36931;SDS011;22847;42.654;23.370;2023-08-01T13:10:18;5.30;;;3.55;;
36931;SDS011;22847;42.654;23.370;2023-08-01T13:12:43;8.63;;;3.55;;
36931;SDS011;22847;42.654;23.370;2023-08-01T13:15:08;5.63;;;3.10;;
36931;SDS011;22847;42.654;23.370;2023-08-01T13:17:34;9.10;;;2.80;;
36931;SDS011;22847;42.654;23.370;2023-08-01T13:20:00;5.30;;;3.05;;
36931;SDS011;22847;42.654;23.370;2023-08-01T13:22:25;4.82;;;3.28;;
36931;SDS011;22847;42.654;23.370;2023-08-01T13:24:51;6.90;;;3.10;;
36931;SDS011;22847;42.654;23.370;2023-08-01T13:27:16;5.53;;;3.28;;
36931;SDS011;22847;42.654;23.370;2023-08-01T13:29:41;5.15;;;3.15;;
36931;SDS011;22847;42.654;23.370;2023-08-01T13:32:07;5.13;;;3.08;;
36931;SDS011;22847;42.654;23.370;2023-08-01T13:34:33;5.30;;;3.17;;
36931;SDS011;22847;42.654;23.370;2023-08-01T13:36:58;4.93;;;2.55;;
36931;SDS011;22847;42.654;23.370;2023-08-01T13:39:23;7.20;;;2.63;;
36931;SDS011;22847;42.654;23.370;2023-08-01T13:41:49;4.95;;;2.85;;
36931;SDS011;22847;42.654;23.370;2023-08-01T13:44:14;4.93;;;3.08;;
36931;SDS011;22847;42.654;23.370;2023-08-01T13:46:40;8.75;;;3.33;;
36931;SDS011;22847;42.654;23.370;2023-08-01T13:49:05;6.38;;;3.25;;
36931;SDS011;22847;42.654;23.370;2023-08-01T13:51:34;3.35;;;2.50;;
36931;SDS011;22847;42.654;23.370;2023-08-01T13:53:59;3.22;;;2.75;;
36931;SDS011;22847;42.654;23.370;2023-08-01T13:56:25;5.72;;;3.70;;
36931;SDS011;22847;42.654;23.370;2023-08-01T13:58:51;14.02;;;3.65;;
36931;SDS011;22847;42.654;23.370;2023-08-01T14:01:17;4.20;;;3.28;;
36931;SDS011;22847;42.654;23.370;2023-08-01T14:03:44;5.65;;;3.35;;
36931;SDS011;22847;42.654;23.370;2023-08-01T14:06:10;4.72;;;2.85;;
36931;SDS011;22847;42.654;23.370;2023-08-01T14:08:37;5.45;;;3.13;;
36931;SDS011;22847;42.654;23.370;2023-08-01T14:11:04;4.75;;;2.67;;
36931;SDS011;22847;42.654;23.370;2023-08-01T14:13:30;3.88;;;2.92;;
36931;SDS011;22847;42.654;23.370;2023-08-01T14:15:57;4.40;;;2.60;;
36931;SDS011;22847;42.654;23.370;2023-08-01T14:18:22;5.57;;;3.13;;
36931;SDS011;22847;42.654;23.370;2023-08-01T14:20:47;8.48;;;3.53;;
36931;SDS011;22847;42.654;23.370;2023-08-01T14:23:13;5.35;;;2.78;;
36931;SDS011;22847;42.654;23.370;2023-08-01T14:25:39;5.20;;;3.15;;
36931;SDS011;22847;42.654;23.370;2023-08-01T14:28:04;3.10;;;2.80;;
36931;SDS011;22847;42.654;23.370;2023-08-01T14:30:30;5.13;;;3.20;;
36931;SDS011;22847;42.654;23.370;2023-08-01T14:32:58;10.85;;;2.92;;
36931;SDS011;22847;42.654;23.370;2023-08-01T14:35:28;10.35;;;3.72;;
36931;SDS011;22847;42.654;23.370;2023-08-01T14:37:53;5.40;;;3.13;;